sensor_id;sensor_type;location;lat;lon;timestamp;P1;durP1;ratioP1;P2;durP2;ratioP2
45402;SDS011;47427;51.976;5.326;2024-02-23T00:00:29;9.82;;;2.42;;
45402;SDS011;47427;51.976;5.326;2024-02-23T00:03:32;10.43;;;3.20;;
45402;SDS011;47427;51.976;5.326;2024-02-23T00:06:36;10.68;;;3.60;;
45402;SDS011;47427;51.976;5.326;2024-02-23T00:09:39;16.27;;;3.40;;
45402;SDS011;47427;51.976;5.326;2024-02-23T00:12:41;22.77;;;4.10;;
45402;SDS011;47427;51.976;5.326;2024-02-23T00:15:45;18.23;;;3.80;;
45402;SDS011;47427;51.976;5.326;2024-02-23T00:18:48;17.55;;;3.90;;
45402;SDS011;47427;51.976;5.326;2024-02-23T00:21:51;13.68;;;3.83;;
45402;SDS011;47427;51.976;5.326;2024-02-23T00:24:54;10.18;;;4.50;;
45402;SDS011;47427;51.976;5.326;2024-02-23T00:27:56;15.50;;;3.92;;
45402;SDS011;47427;51.976;5.326;2024-02-23T00:30:59;14.45;;;3.17;;
45402;SDS011;47427;51.976;5.326;2024-02-23T00:34:01;10.40;;;2.55;;
45402;SDS011;47427;51.976;5.326;2024-02-23T00:37:04;6.70;;;2.17;;
45402;SDS011;47427;51.976;5.326;2024-02-23T00:40:08;12.38;;;3.33;;
45402;SDS011;47427;51.976;5.326;2024-02-23T00:43:12;7.50;;;2.40;;
45402;SDS011;47427;51.976;5.326;2024-02-23T00:46:15;13.27;;;3.35;;
45402;SDS011;47427;51.976;5.326;2024-02-23T00:49:18;18.20;;;4.82;;
45402;SDS011;47427;51.976;5.326;2024-02-23T00:52:19;12.52;;;4.28;;
45402;SDS011;47427;51.976;5.326;2024-02-23T00:55:22;15.98;;;4.07;;
45402;SDS011;47427;51.976;5.326;2024-02-23T00:58:45;10.10;;;2.97;;
45402;SDS011;47427;51.976;5.326;2024-02-23T01:01:47;6.90;;;2.83;;
45402;SDS011;47427;51.976;5.326;2024-02-23T01:04:49;11.88;;;4.10;;
45402;SDS011;47427;51.976;5.326;2024-02-23T01:07:51;9.82;;;3.65;;
45402;SDS011;47427;51.976;5.326;2024-02-23T01:10:54;12.48;;;3.83;;
45402;SDS011;47427;51.976;5.326;2024-02-23T01:13:57;11.77;;;3.92;;
45402;SDS011;47427;51.976;5.326;2024-02-23T01:16:59;5.18;;;3.63;;
45402;SDS011;47427;51.976;5.326;2024-02-23T01:20:02;9.85;;;3.75;;
45402;SDS011;47427;51.976;5.326;2024-02-23T01:23:05;5.75;;;3.50;;
45402;SDS011;47427;51.976;5.326;2024-02-23T01:26:08;9.18;;;4.45;;
45402;SDS011;47427;51.976;5.326;2024-02-23T01:29:09;11.73;;;4.10;;
45402;SDS011;47427;51.976;5.326;2024-02-23T01:32:12;11.57;;;3.72;;
45402;SDS011;47427;51.976;5.326;2024-02-23T01:35:15;12.18;;;4.30;;
45402;SDS011;47427;51.976;5.326;2024-02-23T01:38:18;11.23;;;3.80;;
45402;SDS011;47427;51.976;5.326;2024-02-23T01:41:21;10.15;;;2.50;;
45402;SDS011;47427;51.976;5.326;2024-02-23T01:44:25;13.52;;;3.65;;
45402;SDS011;47427;51.976;5.326;2024-02-23T01:47:28;7.82;;;3.70;;
45402;SDS011;47427;51.976;5.326;2024-02-23T01:50:31;11.65;;;4.05;;
45402;SDS011;47427;51.976;5.326;2024-02-23T01:53:33;10.32;;;4.60;;
45402;SDS011;47427;51.976;5.326;2024-02-23T01:56:36;10.23;;;3.75;;
45402;SDS011;47427;51.976;5.326;2024-02-23T01:59:41;8.27;;;4.45;;
45402;SDS011;47427;51.976;5.326;2024-02-23T02:02:44;11.50;;;4.00;;
45402;SDS011;47427;51.976;5.326;2024-02-23T02:05:47;9.98;;;5.15;;
45402;SDS011;47427;51.976;5.326;2024-02-23T02:08:50;13.23;;;4.15;;
45402;SDS011;47427;51.976;5.326;2024-02-23T02:11:52;11.77;;;4.78;;
45402;SDS011;47427;51.976;5.326;2024-02-23T02:14:55;15.20;;;5.50;;
45402;SDS011;47427;51.976;5.326;2024-02-23T02:17:57;9.30;;;4.00;;
45402;SDS011;47427;51.976;5.326;2024-02-23T02:20:59;13.35;;;4.40;;
45402;SDS011;47427;51.976;5.326;2024-02-23T02:24:01;8.57;;;3.47;;
45402;SDS011;47427;51.976;5.326;2024-02-23T02:27:04;11.68;;;3.58;;
45402;SDS011;47427;51.976;5.326;2024-02-23T02:30:08;15.15;;;3.83;;
45402;SDS011;47427;51.976;5.326;2024-02-23T02:33:10;9.98;;;4.18;;
45402;SDS011;47427;51.976;5.326;2024-02-23T02:36:13;18.27;;;4.13;;
45402;SDS011;47427;51.976;5.326;2024-02-23T02:39:16;11.07;;;3.20;;
45402;SDS011;47427;51.976;5.326;2024-02-23T02:42:19;9.75;;;3.92;;
45402;SDS011;47427;51.976;5.326;2024-02-23T02:45:20;18.27;;;3.17;;
45402;SDS011;47427;51.976;5.326;2024-02-23T02:48:23;10.38;;;2.97;;
45402;SDS011;47427;51.976;5.326;2024-02-23T02:51:26;11.07;;;3.90;;
45402;SDS011;47427;51.976;5.326;2024-02-23T02:54:29;13.23;;;3.45;;
45402;SDS011;47427;51.976;5.326;2024-02-23T02:57:32;11.10;;;3.00;;
45402;SDS011;47427;51.976;5.326;2024-02-23T03:00:53;11.05;;;2.92;;
45402;SDS011;47427;51.976;5.326;2024-02-23T03:03:55;9.35;;;3.53;;
45402;SDS011;47427;51.976;5.326;2024-02-23T03:06:58;12.55;;;4.00;;
45402;SDS011;47427;51.976;5.326;2024-02-23T03:09:59;8.88;;;3.58;;
45402;SDS011;47427;51.976;5.326;2024-02-23T03:13:02;8.15;;;2.85;;
45402;SDS011;47427;51.976;5.326;2024-02-23T03:16:05;7.32;;;3.05;;
45402;SDS011;47427;51.976;5.326;2024-02-23T03:19:07;11.65;;;3.00;;
45402;SDS011;47427;51.976;5.326;2024-02-23T03:22:10;13.15;;;3.33;;
45402;SDS011;47427;51.976;5.326;2024-02-23T03:25:12;9.73;;;3.85;;
45402;SDS011;47427;51.976;5.326;2024-02-23T03:28:15;3.00;;;2.53;;
45402;SDS011;47427;51.976;5.326;2024-02-23T03:31:18;6.82;;;2.85;;
45402;SDS011;47427;51.976;5.326;2024-02-23T03:34:21;8.77;;;3.13;;
45402;SDS011;47427;51.976;5.326;2024-02-23T03:37:22;6.30;;;3.50;;
45402;SDS011;47427;51.976;5.326;2024-02-23T03:40:25;18.20;;;4.30;;
45402;SDS011;47427;51.976;5.326;2024-02-23T03:43:28;8.75;;;3.17;;
45402;SDS011;47427;51.976;5.326;2024-02-23T03:46:31;6.57;;;3.63;;
45402;SDS011;47427;51.976;5.326;2024-02-23T03:49:32;6.20;;;3.20;;
45402;SDS011;47427;51.976;5.326;2024-02-23T03:52:35;5.00;;;2.63;;
45402;SDS011;47427;51.976;5.326;2024-02-23T03:55:38;12.60;;;3.42;;
45402;SDS011;47427;51.976;5.326;2024-02-23T03:58:41;12.15;;;3.95;;
45402;SDS011;47427;51.976;5.326;2024-02-23T04:01:43;7.70;;;3.60;;
45402;SDS011;47427;51.976;5.326;2024-02-23T04:04:47;10.38;;;3.80;;
45402;SDS011;47427;51.976;5.326;2024-02-23T04:07:50;13.35;;;3.42;;
45402;SDS011;47427;51.976;5.326;2024-02-23T04:10:53;23.02;;;6.93;;
45402;SDS011;47427;51.976;5.326;2024-02-23T04:13:55;12.70;;;4.50;;
45402;SDS011;47427;51.976;5.326;2024-02-23T04:16:57;10.18;;;3.88;;
45402;SDS011;47427;51.976;5.326;2024-02-23T04:20:00;6.38;;;3.67;;
45402;SDS011;47427;51.976;5.326;2024-02-23T04:23:09;6.07;;;4.00;;
45402;SDS011;47427;51.976;5.326;2024-02-23T04:26:11;16.15;;;4.85;;
45402;SDS011;47427;51.976;5.326;2024-02-23T04:29:13;5.15;;;3.20;;
45402;SDS011;47427;51.976;5.326;2024-02-23T04:32:16;15.43;;;3.58;;
45402;SDS011;47427;51.976;5.326;2024-02-23T04:35:19;6.93;;;3.75;;
45402;SDS011;47427;51.976;5.326;2024-02-23T04:38:20;8.60;;;3.92;;
45402;SDS011;47427;51.976;5.326;2024-02-23T04:41:23;5.82;;;3.85;;
45402;SDS011;47427;51.976;5.326;2024-02-23T04:44:26;7.75;;;3.67;;
45402;SDS011;47427;51.976;5.326;2024-02-23T04:47:29;6.15;;;4.28;;
45402;SDS011;47427;51.976;5.326;2024-02-23T04:50:31;13.90;;;5.40;;
45402;SDS011;47427;51.976;5.326;2024-02-23T04:53:36;9.88;;;3.67;;
45402;SDS011;47427;51.976;5.326;2024-02-23T04:56:40;8.88;;;4.40;;
45402;SDS011;47427;51.976;5.326;2024-02-23T04:59:42;7.70;;;3.75;;
45402;SDS011;47427;51.976;5.326;2024-02-23T05:02:45;12.98;;;4.60;;
45402;SDS011;47427;51.976;5.326;2024-02-23T05:05:48;14.00;;;4.32;;
45402;SDS011;47427;51.976;5.326;2024-02-23T05:08:59;9.95;;;3.78;;
45402;SDS011;47427;51.976;5.326;2024-02-23T05:12:01;13.23;;;4.68;;
45402;SDS011;47427;51.976;5.326;2024-02-23T05:15:03;13.55;;;4.82;;
45402;SDS011;47427;51.976;5.326;2024-02-23T05:18:06;8.45;;;4.22;;
45402;SDS011;47427;51.976;5.326;2024-02-23T05:21:09;7.57;;;3.55;;
45402;SDS011;47427;51.976;5.326;2024-02-23T05:24:12;6.18;;;4.00;;
45402;SDS011;47427;51.976;5.326;2024-02-23T05:27:15;7.22;;;4.50;;
45402;SDS011;47427;51.976;5.326;2024-02-23T05:30:17;14.68;;;4.80;;
45402;SDS011;47427;51.976;5.326;2024-02-23T05:33:20;8.52;;;4.55;;
45402;SDS011;47427;51.976;5.326;2024-02-23T05:36:23;8.10;;;4.53;;
45402;SDS011;47427;51.976;5.326;2024-02-23T05:39:26;14.65;;;5.22;;
45402;SDS011;47427;51.976;5.326;2024-02-23T05:42:27;11.13;;;4.43;;
45402;SDS011;47427;51.976;5.326;2024-02-23T05:45:30;13.07;;;5.00;;
45402;SDS011;47427;51.976;5.326;2024-02-23T05:48:33;7.68;;;4.13;;
45402;SDS011;47427;51.976;5.326;2024-02-23T05:51:36;8.93;;;4.03;;
45402;SDS011;47427;51.976;5.326;2024-02-23T05:54:37;7.78;;;3.50;;
45402;SDS011;47427;51.976;5.326;2024-02-23T05:57:40;9.27;;;4.00;;
45402;SDS011;47427;51.976;5.326;2024-02-23T06:00:43;7.80;;;3.58;;
45402;SDS011;47427;51.976;5.326;2024-02-23T06:03:46;6.97;;;4.00;;
45402;SDS011;47427;51.976;5.326;2024-02-23T06:06:47;8.82;;;3.35;;
45402;SDS011;47427;51.976;5.326;2024-02-23T06:09:50;13.07;;;4.45;;
45402;SDS011;47427;51.976;5.326;2024-02-23T06:12:53;9.98;;;3.85;;
45402;SDS011;47427;51.976;5.326;2024-02-23T06:15:56;3.70;;;2.97;;
45402;SDS011;47427;51.976;5.326;2024-02-23T06:18:58;15.25;;;4.47;;
45402;SDS011;47427;51.976;5.326;2024-02-23T06:22:00;7.13;;;3.92;;
45402;SDS011;47427;51.976;5.326;2024-02-23T06:25:03;7.18;;;3.75;;
45402;SDS011;47427;51.976;5.326;2024-02-23T06:28:06;8.35;;;3.40;;
45402;SDS011;47427;51.976;5.326;2024-02-23T06:31:09;7.43;;;3.60;;
45402;SDS011;47427;51.976;5.326;2024-02-23T06:34:11;8.30;;;3.85;;
45402;SDS011;47427;51.976;5.326;2024-02-23T06:37:13;9.10;;;5.10;;
45402;SDS011;47427;51.976;5.326;2024-02-23T06:40:16;7.68;;;3.60;;
45402;SDS011;47427;51.976;5.326;2024-02-23T06:43:20;9.05;;;3.35;;
45402;SDS011;47427;51.976;5.326;2024-02-23T06:46:21;4.45;;;3.50;;
45402;SDS011;47427;51.976;5.326;2024-02-23T06:49:24;6.57;;;3.35;;
45402;SDS011;47427;51.976;5.326;2024-02-23T06:52:27;6.68;;;3.72;;
45402;SDS011;47427;51.976;5.326;2024-02-23T06:55:30;9.35;;;4.05;;
45402;SDS011;47427;51.976;5.326;2024-02-23T06:58:32;6.25;;;3.85;;
45402;SDS011;47427;51.976;5.326;2024-02-23T07:01:35;8.10;;;3.67;;
45402;SDS011;47427;51.976;5.326;2024-02-23T07:04:39;8.88;;;3.78;;
45402;SDS011;47427;51.976;5.326;2024-02-23T07:07:41;13.48;;;4.25;;
45402;SDS011;47427;51.976;5.326;2024-02-23T07:10:43;16.10;;;5.18;;
45402;SDS011;47427;51.976;5.326;2024-02-23T07:13:46;7.57;;;4.35;;
45402;SDS011;47427;51.976;5.326;2024-02-23T07:16:48;11.35;;;5.03;;
45402;SDS011;47427;51.976;5.326;2024-02-23T07:19:51;12.73;;;4.57;;
45402;SDS011;47427;51.976;5.326;2024-02-23T07:22:55;8.82;;;5.53;;
45402;SDS011;47427;51.976;5.326;2024-02-23T07:25:57;10.93;;;5.70;;
45402;SDS011;47427;51.976;5.326;2024-02-23T07:29:00;18.20;;;6.13;;
45402;SDS011;47427;51.976;5.326;2024-02-23T07:32:05;7.18;;;4.85;;
45402;SDS011;47427;51.976;5.326;2024-02-23T07:35:09;9.02;;;5.43;;
45402;SDS011;47427;51.976;5.326;2024-02-23T07:38:11;11.73;;;6.45;;
45402;SDS011;47427;51.976;5.326;2024-02-23T07:41:14;11.05;;;6.43;;
45402;SDS011;47427;51.976;5.326;2024-02-23T07:44:19;9.20;;;6.72;;
45402;SDS011;47427;51.976;5.326;2024-02-23T07:47:22;10.02;;;6.32;;
45402;SDS011;47427;51.976;5.326;2024-02-23T07:50:24;8.63;;;6.63;;
45402;SDS011;47427;51.976;5.326;2024-02-23T07:53:27;8.00;;;7.20;;
45402;SDS011;47427;51.976;5.326;2024-02-23T07:56:30;9.02;;;7.47;;
45402;SDS011;47427;51.976;5.326;2024-02-23T07:59:33;9.70;;;7.13;;
45402;SDS011;47427;51.976;5.326;2024-02-23T08:02:34;11.48;;;7.90;;
45402;SDS011;47427;51.976;5.326;2024-02-23T08:05:38;13.10;;;7.82;;
45402;SDS011;47427;51.976;5.326;2024-02-23T08:08:43;14.05;;;7.72;;
45402;SDS011;47427;51.976;5.326;2024-02-23T08:11:47;7.35;;;6.65;;
45402;SDS011;47427;51.976;5.326;2024-02-23T08:14:49;8.05;;;7.38;;
45402;SDS011;47427;51.976;5.326;2024-02-23T08:17:55;15.18;;;7.57;;
45402;SDS011;47427;51.976;5.326;2024-02-23T08:20:58;8.60;;;7.80;;
45402;SDS011;47427;51.976;5.326;2024-02-23T08:24:04;13.82;;;8.93;;
45402;SDS011;47427;51.976;5.326;2024-02-23T08:27:06;8.98;;;7.80;;
45402;SDS011;47427;51.976;5.326;2024-02-23T08:30:09;18.77;;;8.88;;
45402;SDS011;47427;51.976;5.326;2024-02-23T08:33:13;10.38;;;7.90;;
45402;SDS011;47427;51.976;5.326;2024-02-23T08:36:15;9.65;;;8.45;;
45402;SDS011;47427;51.976;5.326;2024-02-23T08:39:17;9.13;;;7.55;;
45402;SDS011;47427;51.976;5.326;2024-02-23T08:42:20;9.73;;;7.05;;
45402;SDS011;47427;51.976;5.326;2024-02-23T08:45:22;14.27;;;7.78;;
45402;SDS011;47427;51.976;5.326;2024-02-23T08:48:25;9.30;;;8.38;;
45402;SDS011;47427;51.976;5.326;2024-02-23T08:51:27;13.50;;;8.75;;
45402;SDS011;47427;51.976;5.326;2024-02-23T08:54:30;10.52;;;7.25;;
45402;SDS011;47427;51.976;5.326;2024-02-23T08:57:32;15.25;;;8.25;;
45402;SDS011;47427;51.976;5.326;2024-02-23T09:00:35;8.15;;;7.38;;
45402;SDS011;47427;51.976;5.326;2024-02-23T09:03:37;12.82;;;8.38;;
45402;SDS011;47427;51.976;5.326;2024-02-23T09:06:40;12.57;;;7.65;;
45402;SDS011;47427;51.976;5.326;2024-02-23T09:09:43;8.45;;;6.85;;
45402;SDS011;47427;51.976;5.326;2024-02-23T09:12:46;12.18;;;7.65;;
45402;SDS011;47427;51.976;5.326;2024-02-23T09:15:49;8.82;;;7.53;;
45402;SDS011;47427;51.976;5.326;2024-02-23T09:18:52;8.63;;;7.70;;
45402;SDS011;47427;51.976;5.326;2024-02-23T09:21:55;9.15;;;7.13;;
45402;SDS011;47427;51.976;5.326;2024-02-23T09:24:58;11.50;;;7.25;;
45402;SDS011;47427;51.976;5.326;2024-02-23T09:28:00;9.43;;;7.38;;
45402;SDS011;47427;51.976;5.326;2024-02-23T09:31:02;11.90;;;8.05;;
45402;SDS011;47427;51.976;5.326;2024-02-23T09:34:06;9.27;;;7.80;;
45402;SDS011;47427;51.976;5.326;2024-02-23T09:37:09;16.20;;;8.32;;
45402;SDS011;47427;51.976;5.326;2024-02-23T09:40:12;9.15;;;8.15;;
45402;SDS011;47427;51.976;5.326;2024-02-23T09:43:15;14.70;;;6.85;;
45402;SDS011;47427;51.976;5.326;2024-02-23T09:46:18;10.55;;;6.75;;
45402;SDS011;47427;51.976;5.326;2024-02-23T09:49:20;8.23;;;6.30;;
45402;SDS011;47427;51.976;5.326;2024-02-23T09:52:22;9.82;;;6.85;;
45402;SDS011;47427;51.976;5.326;2024-02-23T09:55:25;6.97;;;6.28;;
45402;SDS011;47427;51.976;5.326;2024-02-23T09:58:28;10.00;;;7.55;;
45402;SDS011;47427;51.976;5.326;2024-02-23T10:01:32;14.98;;;7.93;;
45402;SDS011;47427;51.976;5.326;2024-02-23T10:04:36;10.20;;;7.32;;
45402;SDS011;47427;51.976;5.326;2024-02-23T10:07:38;10.25;;;8.07;;
45402;SDS011;47427;51.976;5.326;2024-02-23T10:10:40;10.90;;;6.78;;
45402;SDS011;47427;51.976;5.326;2024-02-23T10:13:43;9.82;;;7.15;;
45402;SDS011;47427;51.976;5.326;2024-02-23T10:16:46;9.75;;;6.88;;
45402;SDS011;47427;51.976;5.326;2024-02-23T10:19:55;11.27;;;7.40;;
45402;SDS011;47427;51.976;5.326;2024-02-23T10:22:58;10.05;;;6.35;;
45402;SDS011;47427;51.976;5.326;2024-02-23T10:26:01;9.13;;;7.63;;
45402;SDS011;47427;51.976;5.326;2024-02-23T10:29:06;8.88;;;8.07;;
45402;SDS011;47427;51.976;5.326;2024-02-23T10:32:12;8.02;;;7.22;;
45402;SDS011;47427;51.976;5.326;2024-02-23T10:35:16;8.57;;;7.78;;
45402;SDS011;47427;51.976;5.326;2024-02-23T10:38:19;8.60;;;7.80;;
45402;SDS011;47427;51.976;5.326;2024-02-23T10:41:24;8.55;;;7.40;;
45402;SDS011;47427;51.976;5.326;2024-02-23T10:44:28;8.75;;;7.68;;
45402;SDS011;47427;51.976;5.326;2024-02-23T10:47:31;7.28;;;6.82;;
45402;SDS011;47427;51.976;5.326;2024-02-23T10:50:35;9.50;;;8.15;;
45402;SDS011;47427;51.976;5.326;2024-02-23T10:53:39;10.68;;;7.40;;
45402;SDS011;47427;51.976;5.326;2024-02-23T10:56:42;9.02;;;7.10;;
45402;SDS011;47427;51.976;5.326;2024-02-23T10:59:47;8.73;;;7.93;;
45402;SDS011;47427;51.976;5.326;2024-02-23T11:02:51;8.70;;;7.60;;
45402;SDS011;47427;51.976;5.326;2024-02-23T11:05:56;11.57;;;8.65;;
45402;SDS011;47427;51.976;5.326;2024-02-23T11:09:07;11.75;;;8.93;;
45402;SDS011;47427;51.976;5.326;2024-02-23T11:12:12;8.50;;;7.70;;
45402;SDS011;47427;51.976;5.326;2024-02-23T11:15:29;9.38;;;8.43;;
45402;SDS011;47427;51.976;5.326;2024-02-23T11:18:35;9.05;;;8.27;;
45402;SDS011;47427;51.976;5.326;2024-02-23T11:21:41;9.80;;;7.30;;
45402;SDS011;47427;51.976;5.326;2024-02-23T11:24:43;9.95;;;7.25;;
45402;SDS011;47427;51.976;5.326;2024-02-23T11:27:50;9.48;;;7.70;;
45402;SDS011;47427;51.976;5.326;2024-02-23T11:30:53;7.45;;;6.85;;
45402;SDS011;47427;51.976;5.326;2024-02-23T11:33:56;8.73;;;7.85;;
45402;SDS011;47427;51.976;5.326;2024-02-23T11:37:06;12.48;;;7.90;;
45402;SDS011;47427;51.976;5.326;2024-02-23T11:40:12;9.40;;;7.50;;
45402;SDS011;47427;51.976;5.326;2024-02-23T11:43:16;9.43;;;7.00;;
45402;SDS011;47427;51.976;5.326;2024-02-23T11:46:19;7.45;;;6.75;;
45402;SDS011;47427;51.976;5.326;2024-02-23T11:49:26;6.30;;;5.70;;
45402;SDS011;47427;51.976;5.326;2024-02-23T11:52:30;7.25;;;6.55;;
45402;SDS011;47427;51.976;5.326;2024-02-23T11:55:32;8.25;;;6.43;;
45402;SDS011;47427;51.976;5.326;2024-02-23T11:58:35;7.15;;;6.50;;
45402;SDS011;47427;51.976;5.326;2024-02-23T12:01:38;10.90;;;6.93;;
45402;SDS011;47427;51.976;5.326;2024-02-23T12:04:40;7.35;;;6.75;;
45402;SDS011;47427;51.976;5.326;2024-02-23T12:07:43;9.07;;;6.32;;
45402;SDS011;47427;51.976;5.326;2024-02-23T12:10:46;8.15;;;7.03;;
45402;SDS011;47427;51.976;5.326;2024-02-23T12:13:49;10.13;;;8.63;;
45402;SDS011;47427;51.976;5.326;2024-02-23T12:17:01;8.50;;;7.70;;
45402;SDS011;47427;51.976;5.326;2024-02-23T12:20:09;6.80;;;6.05;;
45402;SDS011;47427;51.976;5.326;2024-02-23T12:23:12;6.93;;;6.38;;
45402;SDS011;47427;51.976;5.326;2024-02-23T12:26:16;10.25;;;6.05;;
45402;SDS011;47427;51.976;5.326;2024-02-23T12:29:19;8.68;;;6.50;;
45402;SDS011;47427;51.976;5.326;2024-02-23T12:32:21;8.20;;;7.03;;
45402;SDS011;47427;51.976;5.326;2024-02-23T12:35:24;12.32;;;7.75;;
45402;SDS011;47427;51.976;5.326;2024-02-23T12:38:29;7.47;;;5.60;;
45402;SDS011;47427;51.976;5.326;2024-02-23T12:41:31;9.10;;;6.68;;
45402;SDS011;47427;51.976;5.326;2024-02-23T12:44:34;10.48;;;6.35;;
45402;SDS011;47427;51.976;5.326;2024-02-23T12:47:37;7.10;;;6.40;;
45402;SDS011;47427;51.976;5.326;2024-02-23T12:50:40;7.43;;;6.88;;
45402;SDS011;47427;51.976;5.326;2024-02-23T12:53:44;8.15;;;7.22;;
45402;SDS011;47427;51.976;5.326;2024-02-23T12:56:46;8.15;;;7.22;;
45402;SDS011;47427;51.976;5.326;2024-02-23T12:59:49;9.65;;;8.70;;
45402;SDS011;47427;51.976;5.326;2024-02-23T13:02:51;8.93;;;7.50;;
45402;SDS011;47427;51.976;5.326;2024-02-23T13:05:55;9.43;;;7.95;;
45402;SDS011;47427;51.976;5.326;2024-02-23T13:08:57;8.77;;;7.90;;
45402;SDS011;47427;51.976;5.326;2024-02-23T13:12:00;8.95;;;8.15;;
45402;SDS011;47427;51.976;5.326;2024-02-23T13:15:03;8.48;;;7.68;;
45402;SDS011;47427;51.976;5.326;2024-02-23T13:18:06;8.73;;;7.82;;
45402;SDS011;47427;51.976;5.326;2024-02-23T13:21:09;8.38;;;7.68;;
45402;SDS011;47427;51.976;5.326;2024-02-23T13:24:11;7.38;;;6.80;;
45402;SDS011;47427;51.976;5.326;2024-02-23T13:27:14;8.23;;;7.03;;
45402;SDS011;47427;51.976;5.326;2024-02-23T13:30:36;8.07;;;6.70;;
45402;SDS011;47427;51.976;5.326;2024-02-23T13:33:39;8.10;;;7.30;;
45402;SDS011;47427;51.976;5.326;2024-02-23T13:36:42;8.52;;;7.70;;
45402;SDS011;47427;51.976;5.326;2024-02-23T13:39:45;8.77;;;7.95;;
45402;SDS011;47427;51.976;5.326;2024-02-23T13:42:48;6.88;;;6.30;;
45402;SDS011;47427;51.976;5.326;2024-02-23T13:45:51;8.50;;;7.35;;
45402;SDS011;47427;51.976;5.326;2024-02-23T13:49:04;8.00;;;7.47;;
45402;SDS011;47427;51.976;5.326;2024-02-23T13:52:09;7.13;;;6.63;;
45402;SDS011;47427;51.976;5.326;2024-02-23T13:55:12;8.32;;;7.55;;
45402;SDS011;47427;51.976;5.326;2024-02-23T13:58:15;6.75;;;6.25;;
45402;SDS011;47427;51.976;5.326;2024-02-23T14:01:17;7.65;;;6.80;;
45402;SDS011;47427;51.976;5.326;2024-02-23T14:04:20;7.82;;;7.22;;
45402;SDS011;47427;51.976;5.326;2024-02-23T14:07:23;6.00;;;5.32;;
45402;SDS011;47427;51.976;5.326;2024-02-23T14:10:24;9.40;;;6.32;;
45402;SDS011;47427;51.976;5.326;2024-02-23T14:13:27;6.03;;;5.53;;
45402;SDS011;47427;51.976;5.326;2024-02-23T14:16:30;5.50;;;5.07;;
45402;SDS011;47427;51.976;5.326;2024-02-23T14:19:33;6.55;;;6.05;;
45402;SDS011;47427;51.976;5.326;2024-02-23T14:22:35;6.72;;;5.80;;
45402;SDS011;47427;51.976;5.326;2024-02-23T14:25:37;11.15;;;6.97;;
45402;SDS011;47427;51.976;5.326;2024-02-23T14:28:40;7.03;;;6.53;;
45402;SDS011;47427;51.976;5.326;2024-02-23T14:31:43;6.72;;;6.32;;
45402;SDS011;47427;51.976;5.326;2024-02-23T14:34:46;7.15;;;6.50;;
45402;SDS011;47427;51.976;5.326;2024-02-23T14:37:48;6.95;;;6.47;;
45402;SDS011;47427;51.976;5.326;2024-02-23T14:40:51;6.22;;;5.63;;
45402;SDS011;47427;51.976;5.326;2024-02-23T14:44:13;6.68;;;6.18;;
45402;SDS011;47427;51.976;5.326;2024-02-23T14:47:14;7.65;;;7.00;;
45402;SDS011;47427;51.976;5.326;2024-02-23T14:50:16;7.57;;;6.93;;
45402;SDS011;47427;51.976;5.326;2024-02-23T14:53:19;8.25;;;7.47;;
45402;SDS011;47427;51.976;5.326;2024-02-23T14:56:22;7.80;;;6.75;;
45402;SDS011;47427;51.976;5.326;2024-02-23T14:59:25;9.02;;;6.88;;
45402;SDS011;47427;51.976;5.326;2024-02-23T15:02:26;7.45;;;6.85;;
45402;SDS011;47427;51.976;5.326;2024-02-23T15:05:29;6.80;;;6.30;;
45402;SDS011;47427;51.976;5.326;2024-02-23T15:08:32;6.50;;;5.90;;
45402;SDS011;47427;51.976;5.326;2024-02-23T15:11:35;6.85;;;6.13;;
45402;SDS011;47427;51.976;5.326;2024-02-23T15:14:36;7.97;;;7.18;;
45402;SDS011;47427;51.976;5.326;2024-02-23T15:17:38;8.30;;;6.55;;
45402;SDS011;47427;51.976;5.326;2024-02-23T15:23:46;8.15;;;6.63;;
45402;SDS011;47427;51.976;5.326;2024-02-23T15:26:48;6.70;;;6.10;;
45402;SDS011;47427;51.976;5.326;2024-02-23T15:29:51;13.40;;;7.10;;
45402;SDS011;47427;51.976;5.326;2024-02-23T15:32:54;19.50;;;10.20;;
45402;SDS011;47427;51.976;5.326;2024-02-23T15:35:56;8.27;;;7.22;;
45402;SDS011;47427;51.976;5.326;2024-02-23T15:38:59;15.35;;;8.75;;
45402;SDS011;47427;51.976;5.326;2024-02-23T15:42:03;8.57;;;6.57;;
45402;SDS011;47427;51.976;5.326;2024-02-23T15:45:06;10.10;;;7.72;;
45402;SDS011;47427;51.976;5.326;2024-02-23T15:48:10;11.32;;;7.30;;
45402;SDS011;47427;51.976;5.326;2024-02-23T15:54:16;10.55;;;7.40;;
45402;SDS011;47427;51.976;5.326;2024-02-23T15:57:19;10.20;;;7.28;;
45402;SDS011;47427;51.976;5.326;2024-02-23T16:00:22;10.05;;;9.15;;
45402;SDS011;47427;51.976;5.326;2024-02-23T16:03:25;8.55;;;7.63;;
45402;SDS011;47427;51.976;5.326;2024-02-23T16:06:26;10.85;;;8.75;;
45402;SDS011;47427;51.976;5.326;2024-02-23T16:09:31;11.43;;;7.55;;
45402;SDS011;47427;51.976;5.326;2024-02-23T16:12:34;8.20;;;7.50;;
45402;SDS011;47427;51.976;5.326;2024-02-23T16:15:37;8.55;;;7.90;;
45402;SDS011;47427;51.976;5.326;2024-02-23T16:18:39;8.85;;;7.88;;
45402;SDS011;47427;51.976;5.326;2024-02-23T16:21:42;10.70;;;8.02;;
45402;SDS011;47427;51.976;5.326;2024-02-23T16:24:46;9.73;;;8.52;;
45402;SDS011;47427;51.976;5.326;2024-02-23T16:27:49;9.85;;;8.63;;
45402;SDS011;47427;51.976;5.326;2024-02-23T16:30:53;17.98;;;10.30;;
45402;SDS011;47427;51.976;5.326;2024-02-23T16:33:56;11.25;;;10.15;;
45402;SDS011;47427;51.976;5.326;2024-02-23T16:36:59;12.38;;;11.15;;
45402;SDS011;47427;51.976;5.326;2024-02-23T16:40:02;11.43;;;10.27;;
45402;SDS011;47427;51.976;5.326;2024-02-23T16:43:05;10.77;;;9.68;;
45402;SDS011;47427;51.976;5.326;2024-02-23T16:46:07;10.90;;;10.00;;
45402;SDS011;47427;51.976;5.326;2024-02-23T16:49:09;13.30;;;10.07;;
45402;SDS011;47427;51.976;5.326;2024-02-23T16:52:12;10.93;;;8.90;;
45402;SDS011;47427;51.976;5.326;2024-02-23T16:55:15;10.18;;;9.13;;
45402;SDS011;47427;51.976;5.326;2024-02-23T16:58:19;9.13;;;8.43;;
45402;SDS011;47427;51.976;5.326;2024-02-23T17:01:24;11.20;;;9.80;;
45402;SDS011;47427;51.976;5.326;2024-02-23T17:04:28;9.65;;;8.88;;
45402;SDS011;47427;51.976;5.326;2024-02-23T17:07:30;16.83;;;13.25;;
45402;SDS011;47427;51.976;5.326;2024-02-23T17:10:32;11.18;;;10.10;;
45402;SDS011;47427;51.976;5.326;2024-02-23T17:13:35;10.95;;;9.25;;
45402;SDS011;47427;51.976;5.326;2024-02-23T17:16:38;10.40;;;9.40;;
45402;SDS011;47427;51.976;5.326;2024-02-23T17:19:41;9.98;;;9.07;;
45402;SDS011;47427;51.976;5.326;2024-02-23T17:22:44;9.05;;;8.13;;
45402;SDS011;47427;51.976;5.326;2024-02-23T17:25:47;10.00;;;7.97;;
45402;SDS011;47427;51.976;5.326;2024-02-23T17:28:51;9.30;;;7.17;;
45402;SDS011;47427;51.976;5.326;2024-02-23T17:31:54;8.50;;;6.28;;
45402;SDS011;47427;51.976;5.326;2024-02-23T17:34:57;10.55;;;7.07;;
45402;SDS011;47427;51.976;5.326;2024-02-23T17:37:58;7.82;;;5.88;;
45402;SDS011;47427;51.976;5.326;2024-02-23T17:41:01;8.75;;;5.50;;
45402;SDS011;47427;51.976;5.326;2024-02-23T17:44:04;5.32;;;5.03;;
45402;SDS011;47427;51.976;5.326;2024-02-23T17:47:07;6.85;;;6.18;;
45402;SDS011;47427;51.976;5.326;2024-02-23T17:50:09;2.72;;;2.50;;
45402;SDS011;47427;51.976;5.326;2024-02-23T17:53:12;2.10;;;2.00;;
45402;SDS011;47427;51.976;5.326;2024-02-23T17:56:15;3.50;;;1.92;;
45402;SDS011;47427;51.976;5.326;2024-02-23T17:59:18;4.65;;;2.92;;
45402;SDS011;47427;51.976;5.326;2024-02-23T18:02:19;3.90;;;2.67;;
45402;SDS011;47427;51.976;5.326;2024-02-23T18:05:22;2.88;;;2.50;;
45402;SDS011;47427;51.976;5.326;2024-02-23T18:08:26;3.78;;;3.28;;
45402;SDS011;47427;51.976;5.326;2024-02-23T18:11:29;5.03;;;2.53;;
45402;SDS011;47427;51.976;5.326;2024-02-23T18:14:30;8.82;;;4.65;;
45402;SDS011;47427;51.976;5.326;2024-02-23T18:17:34;8.65;;;6.18;;
45402;SDS011;47427;51.976;5.326;2024-02-23T18:20:36;8.93;;;4.75;;
45402;SDS011;47427;51.976;5.326;2024-02-23T18:23:39;6.38;;;4.78;;